CheckWX is a tool to help pilots better visualize weather data.  It is not intended as a substitute for an official pre-flight weather briefing.

18:53:05 UTC

EGLC METAR
London City Airport
London, United Kingdom
Current

33 mins ago

EGLC 311820Z AUTO 09017KT 9999 NCD 19/05 Q1023
Observed
May-31 @ 18:20 UTC
Wind
  • 090° at 17 KTS
Visibility
10,000+ meters
Flight Rules
VFR
Cloud Levels
  • Clear skies
Temperature
19°C / 66°F
Dewpoint
C / 41°F
Humidity
40%
Altimeter
30.21" Hg
Pressure
1022.92 hPa
Previous

1 hour ago

EGLC 311750Z AUTO 09017KT 9999 NCD 20/06 Q1023
Observed
May-31 @ 17:50 UTC
Wind
  • 090° at 17 KTS
Visibility
10,000+ meters
Flight Rules
VFR
Cloud Levels
  • Clear skies
Temperature
20°C / 68°F
Dewpoint
C / 43°F
Humidity
40%
Altimeter
30.21" Hg
Pressure
1022.92 hPa
Previous

2 hours ago

EGLC 311720Z AUTO 09017KT 9999 NCD 20/06 Q1022
Observed
May-31 @ 17:20 UTC
Wind
  • 090° at 17 KTS
Visibility
10,000+ meters
Flight Rules
VFR
Cloud Levels
  • Clear skies
Temperature
20°C / 68°F
Dewpoint
C / 43°F
Humidity
40%
Altimeter
30.18" Hg
Pressure
1021.92 hPa